sensor_id;sensor_type;location;lat;lon;timestamp;P1;durP1;ratioP1;P2;durP2;ratioP2
57295;SDS011;43146;50.976;18.216;2023-12-20T00:01:47;15.50;;;6.90;;
57295;SDS011;43146;50.976;18.216;2023-12-20T00:04:13;21.80;;;10.70;;
57295;SDS011;43146;50.976;18.216;2023-12-20T00:06:38;15.30;;;6.90;;
57295;SDS011;43146;50.976;18.216;2023-12-20T00:09:04;15.10;;;7.50;;
57295;SDS011;43146;50.976;18.216;2023-12-20T00:11:29;15.20;;;6.70;;
57295;SDS011;43146;50.976;18.216;2023-12-20T00:13:55;16.50;;;7.20;;
57295;SDS011;43146;50.976;18.216;2023-12-20T00:16:20;14.30;;;6.90;;
57295;SDS011;43146;50.976;18.216;2023-12-20T00:18:46;16.90;;;7.50;;
57295;SDS011;43146;50.976;18.216;2023-12-20T00:21:12;15.00;;;6.90;;
57295;SDS011;43146;50.976;18.216;2023-12-20T00:23:37;14.50;;;7.20;;
57295;SDS011;43146;50.976;18.216;2023-12-20T00:26:03;14.40;;;7.20;;
57295;SDS011;43146;50.976;18.216;2023-12-20T00:28:28;15.70;;;7.10;;
57295;SDS011;43146;50.976;18.216;2023-12-20T00:30:54;15.20;;;7.00;;
57295;SDS011;43146;50.976;18.216;2023-12-20T00:33:19;15.60;;;7.70;;
57295;SDS011;43146;50.976;18.216;2023-12-20T00:35:45;14.90;;;7.20;;
57295;SDS011;43146;50.976;18.216;2023-12-20T00:38:10;18.30;;;8.20;;
57295;SDS011;43146;50.976;18.216;2023-12-20T00:40:37;16.40;;;7.80;;
57295;SDS011;43146;50.976;18.216;2023-12-20T00:43:03;15.30;;;7.40;;
57295;SDS011;43146;50.976;18.216;2023-12-20T00:45:28;15.30;;;7.60;;
57295;SDS011;43146;50.976;18.216;2023-12-20T00:47:54;14.50;;;6.90;;
57295;SDS011;43146;50.976;18.216;2023-12-20T00:50:19;15.00;;;7.70;;
57295;SDS011;43146;50.976;18.216;2023-12-20T00:52:47;16.50;;;8.00;;
57295;SDS011;43146;50.976;18.216;2023-12-20T00:55:13;14.90;;;7.60;;
57295;SDS011;43146;50.976;18.216;2023-12-20T00:57:39;14.70;;;7.40;;
57295;SDS011;43146;50.976;18.216;2023-12-20T01:00:05;13.40;;;6.60;;
57295;SDS011;43146;50.976;18.216;2023-12-20T01:02:31;15.50;;;7.20;;
57295;SDS011;43146;50.976;18.216;2023-12-20T01:04:57;14.70;;;7.50;;
57295;SDS011;43146;50.976;18.216;2023-12-20T01:07:22;15.00;;;6.90;;
57295;SDS011;43146;50.976;18.216;2023-12-20T01:09:48;15.90;;;7.20;;
57295;SDS011;43146;50.976;18.216;2023-12-20T01:12:13;14.70;;;7.60;;
57295;SDS011;43146;50.976;18.216;2023-12-20T01:14:39;15.40;;;7.90;;
57295;SDS011;43146;50.976;18.216;2023-12-20T01:17:05;14.70;;;7.40;;
57295;SDS011;43146;50.976;18.216;2023-12-20T01:19:30;14.30;;;7.10;;
57295;SDS011;43146;50.976;18.216;2023-12-20T01:21:56;14.60;;;7.30;;
57295;SDS011;43146;50.976;18.216;2023-12-20T01:24:21;13.60;;;7.00;;
57295;SDS011;43146;50.976;18.216;2023-12-20T01:26:47;14.50;;;7.30;;
57295;SDS011;43146;50.976;18.216;2023-12-20T01:29:13;15.10;;;7.20;;
57295;SDS011;43146;50.976;18.216;2023-12-20T01:31:39;15.50;;;7.40;;
57295;SDS011;43146;50.976;18.216;2023-12-20T01:34:06;16.00;;;7.40;;
57295;SDS011;43146;50.976;18.216;2023-12-20T01:36:31;15.60;;;7.90;;
57295;SDS011;43146;50.976;18.216;2023-12-20T01:38:57;14.80;;;7.30;;
57295;SDS011;43146;50.976;18.216;2023-12-20T01:41:23;14.50;;;7.10;;
57295;SDS011;43146;50.976;18.216;2023-12-20T01:43:48;14.50;;;7.00;;
57295;SDS011;43146;50.976;18.216;2023-12-20T01:46:14;13.80;;;6.90;;
57295;SDS011;43146;50.976;18.216;2023-12-20T01:48:40;15.00;;;7.00;;
57295;SDS011;43146;50.976;18.216;2023-12-20T01:51:06;13.50;;;7.10;;
57295;SDS011;43146;50.976;18.216;2023-12-20T01:53:31;14.80;;;7.20;;
57295;SDS011;43146;50.976;18.216;2023-12-20T01:55:57;15.00;;;7.50;;
57295;SDS011;43146;50.976;18.216;2023-12-20T01:58:23;15.40;;;7.70;;
57295;SDS011;43146;50.976;18.216;2023-12-20T02:00:50;13.20;;;7.10;;
57295;SDS011;43146;50.976;18.216;2023-12-20T02:03:15;13.80;;;7.30;;
57295;SDS011;43146;50.976;18.216;2023-12-20T02:05:42;14.80;;;7.60;;
57295;SDS011;43146;50.976;18.216;2023-12-20T02:08:07;14.70;;;8.10;;
57295;SDS011;43146;50.976;18.216;2023-12-20T02:10:33;16.80;;;7.90;;
57295;SDS011;43146;50.976;18.216;2023-12-20T02:12:59;15.00;;;8.20;;
57295;SDS011;43146;50.976;18.216;2023-12-20T02:15:25;16.60;;;8.60;;
57295;SDS011;43146;50.976;18.216;2023-12-20T02:17:50;16.30;;;8.50;;
57295;SDS011;43146;50.976;18.216;2023-12-20T02:20:16;16.30;;;8.20;;
57295;SDS011;43146;50.976;18.216;2023-12-20T02:22:42;16.40;;;8.90;;
57295;SDS011;43146;50.976;18.216;2023-12-20T02:25:07;17.20;;;9.30;;
57295;SDS011;43146;50.976;18.216;2023-12-20T02:27:33;19.20;;;9.70;;
57295;SDS011;43146;50.976;18.216;2023-12-20T02:30:00;18.70;;;9.70;;
57295;SDS011;43146;50.976;18.216;2023-12-20T02:32:25;17.00;;;10.00;;
57295;SDS011;43146;50.976;18.216;2023-12-20T02:34:54;17.90;;;10.10;;
57295;SDS011;43146;50.976;18.216;2023-12-20T02:37:20;18.30;;;9.40;;
57295;SDS011;43146;50.976;18.216;2023-12-20T02:39:46;18.60;;;10.50;;
57295;SDS011;43146;50.976;18.216;2023-12-20T02:42:12;17.60;;;10.00;;
57295;SDS011;43146;50.976;18.216;2023-12-20T02:44:38;16.50;;;9.60;;
57295;SDS011;43146;50.976;18.216;2023-12-20T02:47:04;16.70;;;9.30;;
57295;SDS011;43146;50.976;18.216;2023-12-20T02:49:29;16.00;;;9.30;;
57295;SDS011;43146;50.976;18.216;2023-12-20T02:51:55;17.40;;;8.90;;
57295;SDS011;43146;50.976;18.216;2023-12-20T02:54:21;19.20;;;9.90;;
57295;SDS011;43146;50.976;18.216;2023-12-20T02:56:46;17.10;;;9.80;;
57295;SDS011;43146;50.976;18.216;2023-12-20T02:59:13;18.10;;;10.00;;
57295;SDS011;43146;50.976;18.216;2023-12-20T03:01:44;18.50;;;10.70;;
57295;SDS011;43146;50.976;18.216;2023-12-20T03:04:10;18.20;;;10.40;;
57295;SDS011;43146;50.976;18.216;2023-12-20T03:06:39;18.30;;;10.70;;
57295;SDS011;43146;50.976;18.216;2023-12-20T03:09:04;18.20;;;10.50;;
57295;SDS011;43146;50.976;18.216;2023-12-20T03:11:30;18.70;;;10.00;;
57295;SDS011;43146;50.976;18.216;2023-12-20T03:13:56;20.30;;;11.00;;
57295;SDS011;43146;50.976;18.216;2023-12-20T03:16:22;16.90;;;10.30;;
57295;SDS011;43146;50.976;18.216;2023-12-20T03:18:47;20.50;;;10.90;;
57295;SDS011;43146;50.976;18.216;2023-12-20T03:21:13;20.00;;;10.70;;
57295;SDS011;43146;50.976;18.216;2023-12-20T03:23:39;18.20;;;11.20;;
57295;SDS011;43146;50.976;18.216;2023-12-20T03:26:08;20.10;;;11.90;;
57295;SDS011;43146;50.976;18.216;2023-12-20T03:28:34;20.80;;;12.40;;
57295;SDS011;43146;50.976;18.216;2023-12-20T03:30:59;19.90;;;11.80;;
57295;SDS011;43146;50.976;18.216;2023-12-20T03:33:25;19.70;;;11.40;;
57295;SDS011;43146;50.976;18.216;2023-12-20T03:35:50;20.00;;;11.50;;
57295;SDS011;43146;50.976;18.216;2023-12-20T03:38:16;22.00;;;12.20;;
57295;SDS011;43146;50.976;18.216;2023-12-20T03:40:42;21.20;;;12.50;;
57295;SDS011;43146;50.976;18.216;2023-12-20T03:43:07;19.70;;;12.20;;
57295;SDS011;43146;50.976;18.216;2023-12-20T03:45:33;21.60;;;12.40;;
57295;SDS011;43146;50.976;18.216;2023-12-20T03:47:59;21.00;;;12.50;;
57295;SDS011;43146;50.976;18.216;2023-12-20T03:50:25;20.00;;;12.70;;
57295;SDS011;43146;50.976;18.216;2023-12-20T03:52:51;20.30;;;12.10;;
57295;SDS011;43146;50.976;18.216;2023-12-20T03:55:17;22.70;;;13.00;;
57295;SDS011;43146;50.976;18.216;2023-12-20T03:57:43;19.70;;;12.20;;
57295;SDS011;43146;50.976;18.216;2023-12-20T04:00:08;20.40;;;11.90;;
57295;SDS011;43146;50.976;18.216;2023-12-20T04:02:38;19.00;;;12.30;;
57295;SDS011;43146;50.976;18.216;2023-12-20T04:05:04;21.80;;;12.10;;
57295;SDS011;43146;50.976;18.216;2023-12-20T04:07:30;20.40;;;12.60;;
57295;SDS011;43146;50.976;18.216;2023-12-20T04:09:56;20.50;;;12.10;;
57295;SDS011;43146;50.976;18.216;2023-12-20T04:12:22;21.70;;;12.60;;
57295;SDS011;43146;50.976;18.216;2023-12-20T04:14:47;21.10;;;12.70;;
57295;SDS011;43146;50.976;18.216;2023-12-20T04:17:13;21.30;;;12.50;;
57295;SDS011;43146;50.976;18.216;2023-12-20T04:19:41;19.70;;;11.70;;
57295;SDS011;43146;50.976;18.216;2023-12-20T04:22:07;18.70;;;11.70;;
57295;SDS011;43146;50.976;18.216;2023-12-20T04:24:32;20.90;;;13.30;;
57295;SDS011;43146;50.976;18.216;2023-12-20T04:26:58;22.30;;;12.70;;
57295;SDS011;43146;50.976;18.216;2023-12-20T04:29:24;20.40;;;12.90;;
57295;SDS011;43146;50.976;18.216;2023-12-20T04:31:49;20.20;;;12.20;;
57295;SDS011;43146;50.976;18.216;2023-12-20T04:34:18;23.10;;;12.00;;
57295;SDS011;43146;50.976;18.216;2023-12-20T04:36:44;20.10;;;11.40;;
57295;SDS011;43146;50.976;18.216;2023-12-20T04:39:09;18.70;;;11.60;;
57295;SDS011;43146;50.976;18.216;2023-12-20T04:41:36;23.50;;;15.50;;
57295;SDS011;43146;50.976;18.216;2023-12-20T04:44:02;18.70;;;11.50;;
57295;SDS011;43146;50.976;18.216;2023-12-20T04:46:28;89.70;;;50.30;;
57295;SDS011;43146;50.976;18.216;2023-12-20T04:48:53;87.90;;;58.80;;
57295;SDS011;43146;50.976;18.216;2023-12-20T04:51:19;64.80;;;39.30;;
57295;SDS011;43146;50.976;18.216;2023-12-20T04:53:44;46.90;;;29.10;;
57295;SDS011;43146;50.976;18.216;2023-12-20T04:56:10;52.80;;;32.00;;
57295;SDS011;43146;50.976;18.216;2023-12-20T04:58:36;152.90;;;77.00;;
57295;SDS011;43146;50.976;18.216;2023-12-20T05:01:02;135.10;;;67.80;;
57295;SDS011;43146;50.976;18.216;2023-12-20T05:03:29;200.30;;;93.90;;
57295;SDS011;43146;50.976;18.216;2023-12-20T05:05:54;354.20;;;169.60;;
57295;SDS011;43146;50.976;18.216;2023-12-20T05:08:20;229.50;;;93.80;;
57295;SDS011;43146;50.976;18.216;2023-12-20T05:10:46;148.40;;;54.30;;
57295;SDS011;43146;50.976;18.216;2023-12-20T05:13:11;411.60;;;162.10;;
57295;SDS011;43146;50.976;18.216;2023-12-20T05:15:37;1238.70;;;531.60;;
57295;SDS011;43146;50.976;18.216;2023-12-20T05:18:03;319.60;;;122.80;;
57295;SDS011;43146;50.976;18.216;2023-12-20T05:20:29;96.50;;;36.40;;
57295;SDS011;43146;50.976;18.216;2023-12-20T05:22:54;134.10;;;48.10;;
57295;SDS011;43146;50.976;18.216;2023-12-20T05:25:20;919.10;;;418.80;;
57295;SDS011;43146;50.976;18.216;2023-12-20T05:27:45;401.10;;;163.80;;
57295;SDS011;43146;50.976;18.216;2023-12-20T05:30:11;535.50;;;237.30;;
57295;SDS011;43146;50.976;18.216;2023-12-20T05:32:37;1072.40;;;505.20;;
57295;SDS011;43146;50.976;18.216;2023-12-20T05:35:03;653.30;;;294.80;;
57295;SDS011;43146;50.976;18.216;2023-12-20T05:37:29;451.60;;;202.40;;
57295;SDS011;43146;50.976;18.216;2023-12-20T05:39:54;291.70;;;120.60;;
57295;SDS011;43146;50.976;18.216;2023-12-20T05:42:20;363.80;;;160.30;;
57295;SDS011;43146;50.976;18.216;2023-12-20T05:44:46;341.80;;;148.50;;
57295;SDS011;43146;50.976;18.216;2023-12-20T05:47:12;183.20;;;76.80;;
57295;SDS011;43146;50.976;18.216;2023-12-20T05:49:37;395.10;;;148.20;;
57295;SDS011;43146;50.976;18.216;2023-12-20T05:52:03;217.70;;;84.70;;
57295;SDS011;43146;50.976;18.216;2023-12-20T05:54:29;94.70;;;41.20;;
57295;SDS011;43146;50.976;18.216;2023-12-20T05:56:55;218.80;;;92.60;;
57295;SDS011;43146;50.976;18.216;2023-12-20T05:59:21;245.20;;;115.00;;
57295;SDS011;43146;50.976;18.216;2023-12-20T06:01:46;151.60;;;76.90;;
57295;SDS011;43146;50.976;18.216;2023-12-20T06:04:12;292.50;;;138.10;;
57295;SDS011;43146;50.976;18.216;2023-12-20T06:06:41;378.50;;;197.60;;
57295;SDS011;43146;50.976;18.216;2023-12-20T06:09:07;200.40;;;87.90;;
57295;SDS011;43146;50.976;18.216;2023-12-20T06:11:33;244.60;;;113.90;;
57295;SDS011;43146;50.976;18.216;2023-12-20T06:13:59;246.00;;;121.10;;
57295;SDS011;43146;50.976;18.216;2023-12-20T06:16:25;114.70;;;59.20;;
57295;SDS011;43146;50.976;18.216;2023-12-20T06:18:50;108.70;;;49.30;;
57295;SDS011;43146;50.976;18.216;2023-12-20T06:21:16;86.10;;;39.30;;
57295;SDS011;43146;50.976;18.216;2023-12-20T06:23:41;97.40;;;47.80;;
57295;SDS011;43146;50.976;18.216;2023-12-20T06:26:08;97.50;;;51.90;;
57295;SDS011;43146;50.976;18.216;2023-12-20T06:28:34;90.60;;;44.40;;
57295;SDS011;43146;50.976;18.216;2023-12-20T06:30:59;41.00;;;18.20;;
57295;SDS011;43146;50.976;18.216;2023-12-20T06:33:26;67.60;;;32.10;;
57295;SDS011;43146;50.976;18.216;2023-12-20T06:35:52;54.90;;;28.00;;
57295;SDS011;43146;50.976;18.216;2023-12-20T06:38:18;48.60;;;19.20;;
57295;SDS011;43146;50.976;18.216;2023-12-20T06:40:44;39.30;;;17.80;;
57295;SDS011;43146;50.976;18.216;2023-12-20T06:43:11;48.10;;;21.20;;
57295;SDS011;43146;50.976;18.216;2023-12-20T06:45:38;44.90;;;17.90;;
57295;SDS011;43146;50.976;18.216;2023-12-20T06:48:04;30.10;;;15.90;;
57295;SDS011;43146;50.976;18.216;2023-12-20T06:50:30;39.80;;;19.30;;
57295;SDS011;43146;50.976;18.216;2023-12-20T06:52:56;62.00;;;38.10;;
57295;SDS011;43146;50.976;18.216;2023-12-20T06:55:22;56.70;;;30.60;;
57295;SDS011;43146;50.976;18.216;2023-12-20T06:57:48;113.80;;;67.10;;
57295;SDS011;43146;50.976;18.216;2023-12-20T07:00:14;24.30;;;13.40;;
57295;SDS011;43146;50.976;18.216;2023-12-20T07:02:40;61.80;;;35.40;;
57295;SDS011;43146;50.976;18.216;2023-12-20T07:05:06;29.40;;;12.40;;
57295;SDS011;43146;50.976;18.216;2023-12-20T07:07:32;46.40;;;25.60;;
57295;SDS011;43146;50.976;18.216;2023-12-20T07:09:57;57.20;;;35.60;;
57295;SDS011;43146;50.976;18.216;2023-12-20T07:12:23;24.20;;;13.40;;
57295;SDS011;43146;50.976;18.216;2023-12-20T07:14:49;28.10;;;15.10;;
57295;SDS011;43146;50.976;18.216;2023-12-20T07:17:14;17.40;;;8.00;;
57295;SDS011;43146;50.976;18.216;2023-12-20T07:19:41;17.20;;;10.70;;
57295;SDS011;43146;50.976;18.216;2023-12-20T07:22:07;22.40;;;12.60;;
57295;SDS011;43146;50.976;18.216;2023-12-20T07:24:33;29.10;;;18.00;;
57295;SDS011;43146;50.976;18.216;2023-12-20T07:27:00;60.90;;;35.50;;
57295;SDS011;43146;50.976;18.216;2023-12-20T07:29:26;47.50;;;30.00;;
57295;SDS011;43146;50.976;18.216;2023-12-20T07:31:54;33.40;;;21.50;;
57295;SDS011;43146;50.976;18.216;2023-12-20T07:34:20;29.40;;;12.90;;
57295;SDS011;43146;50.976;18.216;2023-12-20T07:36:46;53.30;;;32.60;;
57295;SDS011;43146;50.976;18.216;2023-12-20T07:39:12;21.90;;;13.20;;
57295;SDS011;43146;50.976;18.216;2023-12-20T07:41:39;49.00;;;30.40;;
57295;SDS011;43146;50.976;18.216;2023-12-20T07:44:04;22.00;;;9.50;;
57295;SDS011;43146;50.976;18.216;2023-12-20T07:46:30;12.30;;;5.30;;
57295;SDS011;43146;50.976;18.216;2023-12-20T07:48:56;28.40;;;18.90;;
57295;SDS011;43146;50.976;18.216;2023-12-20T07:51:21;29.70;;;19.80;;
57295;SDS011;43146;50.976;18.216;2023-12-20T07:53:47;37.60;;;25.60;;
57295;SDS011;43146;50.976;18.216;2023-12-20T07:56:16;30.00;;;20.40;;
57295;SDS011;43146;50.976;18.216;2023-12-20T07:58:42;25.60;;;18.20;;
57295;SDS011;43146;50.976;18.216;2023-12-20T08:01:08;17.20;;;8.90;;
57295;SDS011;43146;50.976;18.216;2023-12-20T08:03:34;13.60;;;7.40;;
57295;SDS011;43146;50.976;18.216;2023-12-20T08:06:00;21.60;;;12.60;;
57295;SDS011;43146;50.976;18.216;2023-12-20T08:08:26;17.50;;;11.50;;
57295;SDS011;43146;50.976;18.216;2023-12-20T08:10:51;18.10;;;10.80;;
57295;SDS011;43146;50.976;18.216;2023-12-20T08:13:17;12.00;;;6.70;;
57295;SDS011;43146;50.976;18.216;2023-12-20T08:15:42;15.90;;;8.30;;
57295;SDS011;43146;50.976;18.216;2023-12-20T08:18:08;11.60;;;5.30;;
57295;SDS011;43146;50.976;18.216;2023-12-20T08:20:33;11.00;;;5.30;;
57295;SDS011;43146;50.976;18.216;2023-12-20T08:22:59;12.30;;;6.20;;
57295;SDS011;43146;50.976;18.216;2023-12-20T08:25:25;13.00;;;6.00;;
57295;SDS011;43146;50.976;18.216;2023-12-20T08:27:50;12.40;;;6.10;;
57295;SDS011;43146;50.976;18.216;2023-12-20T08:30:16;11.20;;;5.50;;
57295;SDS011;43146;50.976;18.216;2023-12-20T08:32:49;10.00;;;4.10;;
57295;SDS011;43146;50.976;18.216;2023-12-20T08:35:15;10.10;;;4.00;;
57295;SDS011;43146;50.976;18.216;2023-12-20T08:37:41;9.60;;;3.80;;
57295;SDS011;43146;50.976;18.216;2023-12-20T08:40:06;10.80;;;5.00;;
57295;SDS011;43146;50.976;18.216;2023-12-20T08:42:32;10.30;;;4.70;;
57295;SDS011;43146;50.976;18.216;2023-12-20T08:44:58;10.30;;;4.40;;
57295;SDS011;43146;50.976;18.216;2023-12-20T08:47:24;10.80;;;5.10;;
57295;SDS011;43146;50.976;18.216;2023-12-20T08:49:50;10.40;;;5.00;;
57295;SDS011;43146;50.976;18.216;2023-12-20T08:52:15;11.80;;;5.20;;
57295;SDS011;43146;50.976;18.216;2023-12-20T08:54:41;10.40;;;4.80;;
57295;SDS011;43146;50.976;18.216;2023-12-20T08:57:06;10.80;;;4.90;;
57295;SDS011;43146;50.976;18.216;2023-12-20T08:59:32;10.70;;;4.70;;
57295;SDS011;43146;50.976;18.216;2023-12-20T09:01:58;11.50;;;5.40;;
57295;SDS011;43146;50.976;18.216;2023-12-20T09:04:24;11.10;;;5.30;;
57295;SDS011;43146;50.976;18.216;2023-12-20T09:06:50;10.30;;;4.70;;
57295;SDS011;43146;50.976;18.216;2023-12-20T09:09:16;11.60;;;5.00;;
57295;SDS011;43146;50.976;18.216;2023-12-20T09:11:41;11.60;;;4.80;;
57295;SDS011;43146;50.976;18.216;2023-12-20T09:14:07;11.20;;;4.60;;
57295;SDS011;43146;50.976;18.216;2023-12-20T09:16:33;9.80;;;4.20;;
57295;SDS011;43146;50.976;18.216;2023-12-20T09:18:58;9.90;;;4.30;;
57295;SDS011;43146;50.976;18.216;2023-12-20T09:21:24;9.70;;;4.00;;
57295;SDS011;43146;50.976;18.216;2023-12-20T09:23:50;10.20;;;4.00;;
57295;SDS011;43146;50.976;18.216;2023-12-20T09:26:18;10.00;;;4.30;;
57295;SDS011;43146;50.976;18.216;2023-12-20T09:28:44;10.10;;;3.70;;
57295;SDS011;43146;50.976;18.216;2023-12-20T09:31:10;8.70;;;3.40;;
57295;SDS011;43146;50.976;18.216;2023-12-20T09:33:35;9.30;;;3.20;;
57295;SDS011;43146;50.976;18.216;2023-12-20T09:36:01;8.50;;;3.20;;
57295;SDS011;43146;50.976;18.216;2023-12-20T09:38:27;7.60;;;2.80;;
57295;SDS011;43146;50.976;18.216;2023-12-20T09:40:53;8.70;;;3.50;;
57295;SDS011;43146;50.976;18.216;2023-12-20T09:43:20;9.30;;;3.30;;
57295;SDS011;43146;50.976;18.216;2023-12-20T09:45:49;11.10;;;4.80;;
57295;SDS011;43146;50.976;18.216;2023-12-20T09:48:18;8.60;;;3.40;;
57295;SDS011;43146;50.976;18.216;2023-12-20T09:50:45;9.20;;;3.40;;
57295;SDS011;43146;50.976;18.216;2023-12-20T09:53:12;7.70;;;3.00;;
57295;SDS011;43146;50.976;18.216;2023-12-20T09:55:41;7.50;;;2.80;;
57295;SDS011;43146;50.976;18.216;2023-12-20T09:58:07;8.80;;;3.20;;
57295;SDS011;43146;50.976;18.216;2023-12-20T10:00:37;8.10;;;3.00;;
57295;SDS011;43146;50.976;18.216;2023-12-20T10:03:02;7.20;;;2.70;;
57295;SDS011;43146;50.976;18.216;2023-12-20T10:05:29;11.60;;;3.60;;
57295;SDS011;43146;50.976;18.216;2023-12-20T10:07:56;8.10;;;2.80;;
57295;SDS011;43146;50.976;18.216;2023-12-20T10:10:22;7.70;;;2.60;;
57295;SDS011;43146;50.976;18.216;2023-12-20T10:15:46;9.70;;;2.70;;
57295;SDS011;43146;50.976;18.216;2023-12-20T10:18:12;10.20;;;3.50;;
57295;SDS011;43146;50.976;18.216;2023-12-20T10:20:39;11.20;;;3.20;;
57295;SDS011;43146;50.976;18.216;2023-12-20T10:23:05;12.90;;;4.60;;
57295;SDS011;43146;50.976;18.216;2023-12-20T10:25:31;7.60;;;2.60;;
57295;SDS011;43146;50.976;18.216;2023-12-20T10:30:54;8.40;;;2.80;;
57295;SDS011;43146;50.976;18.216;2023-12-20T10:33:30;12.00;;;4.00;;
57295;SDS011;43146;50.976;18.216;2023-12-20T10:35:59;15.20;;;6.60;;
57295;SDS011;43146;50.976;18.216;2023-12-20T10:38:25;24.20;;;12.90;;
57295;SDS011;43146;50.976;18.216;2023-12-20T10:40:53;42.80;;;24.30;;
57295;SDS011;43146;50.976;18.216;2023-12-20T10:43:20;24.70;;;14.30;;
57295;SDS011;43146;50.976;18.216;2023-12-20T10:45:45;13.30;;;6.60;;
57295;SDS011;43146;50.976;18.216;2023-12-20T10:48:11;27.20;;;14.90;;
57295;SDS011;43146;50.976;18.216;2023-12-20T10:50:40;26.80;;;9.50;;
57295;SDS011;43146;50.976;18.216;2023-12-20T10:53:06;15.00;;;5.20;;
57295;SDS011;43146;50.976;18.216;2023-12-20T10:55:32;28.80;;;11.10;;
57295;SDS011;43146;50.976;18.216;2023-12-20T10:58:04;16.70;;;6.50;;
57295;SDS011;43146;50.976;18.216;2023-12-20T11:00:40;17.60;;;6.50;;
57295;SDS011;43146;50.976;18.216;2023-12-20T11:03:10;17.30;;;5.90;;
57295;SDS011;43146;50.976;18.216;2023-12-20T11:05:46;12.00;;;4.70;;
57295;SDS011;43146;50.976;18.216;2023-12-20T11:11:08;45.50;;;15.60;;
57295;SDS011;43146;50.976;18.216;2023-12-20T11:16:24;34.70;;;18.00;;
57295;SDS011;43146;50.976;18.216;2023-12-20T11:18:50;42.40;;;16.00;;
57295;SDS011;43146;50.976;18.216;2023-12-20T11:21:16;27.30;;;10.30;;
57295;SDS011;43146;50.976;18.216;2023-12-20T11:23:42;21.10;;;8.90;;
57295;SDS011;43146;50.976;18.216;2023-12-20T11:26:08;32.90;;;16.70;;
57295;SDS011;43146;50.976;18.216;2023-12-20T11:28:34;13.30;;;5.30;;
57295;SDS011;43146;50.976;18.216;2023-12-20T11:31:00;15.50;;;6.40;;
57295;SDS011;43146;50.976;18.216;2023-12-20T11:33:36;16.10;;;6.70;;
57295;SDS011;43146;50.976;18.216;2023-12-20T11:36:03;19.90;;;9.00;;
57295;SDS011;43146;50.976;18.216;2023-12-20T11:38:36;16.30;;;6.80;;
57295;SDS011;43146;50.976;18.216;2023-12-20T11:41:04;14.10;;;5.60;;
57295;SDS011;43146;50.976;18.216;2023-12-20T11:46:02;15.30;;;6.50;;
57295;SDS011;43146;50.976;18.216;2023-12-20T11:48:29;22.40;;;10.90;;
57295;SDS011;43146;50.976;18.216;2023-12-20T11:50:56;19.40;;;8.10;;
57295;SDS011;43146;50.976;18.216;2023-12-20T11:53:22;14.40;;;5.50;;
57295;SDS011;43146;50.976;18.216;2023-12-20T11:55:48;28.20;;;15.20;;
57295;SDS011;43146;50.976;18.216;2023-12-20T11:58:14;27.60;;;13.60;;
57295;SDS011;43146;50.976;18.216;2023-12-20T12:00:42;20.90;;;9.40;;
57295;SDS011;43146;50.976;18.216;2023-12-20T12:03:14;57.40;;;29.90;;
57295;SDS011;43146;50.976;18.216;2023-12-20T12:05:40;36.80;;;18.10;;
57295;SDS011;43146;50.976;18.216;2023-12-20T12:08:06;25.90;;;12.40;;
57295;SDS011;43146;50.976;18.216;2023-12-20T12:10:33;59.40;;;29.00;;
57295;SDS011;43146;50.976;18.216;2023-12-20T12:12:59;75.20;;;35.80;;
57295;SDS011;43146;50.976;18.216;2023-12-20T12:15:25;23.10;;;10.40;;
57295;SDS011;43146;50.976;18.216;2023-12-20T12:17:54;26.90;;;12.50;;
57295;SDS011;43146;50.976;18.216;2023-12-20T12:20:24;15.20;;;7.10;;
57295;SDS011;43146;50.976;18.216;2023-12-20T12:23:03;17.30;;;8.60;;
57295;SDS011;43146;50.976;18.216;2023-12-20T12:25:29;11.00;;;4.30;;
57295;SDS011;43146;50.976;18.216;2023-12-20T12:27:57;11.00;;;4.00;;
57295;SDS011;43146;50.976;18.216;2023-12-20T12:30:23;13.00;;;4.40;;
57295;SDS011;43146;50.976;18.216;2023-12-20T12:32:50;18.70;;;7.90;;
57295;SDS011;43146;50.976;18.216;2023-12-20T12:35:17;15.00;;;6.90;;
57295;SDS011;43146;50.976;18.216;2023-12-20T12:37:43;17.50;;;10.10;;
57295;SDS011;43146;50.976;18.216;2023-12-20T12:40:15;11.90;;;5.50;;
57295;SDS011;43146;50.976;18.216;2023-12-20T12:42:42;13.80;;;7.20;;
57295;SDS011;43146;50.976;18.216;2023-12-20T12:45:09;13.60;;;5.60;;
57295;SDS011;43146;50.976;18.216;2023-12-20T12:47:36;19.50;;;14.10;;
57295;SDS011;43146;50.976;18.216;2023-12-20T12:50:03;27.40;;;19.60;;
57295;SDS011;43146;50.976;18.216;2023-12-20T12:52:30;10.90;;;5.50;;
57295;SDS011;43146;50.976;18.216;2023-12-20T12:54:56;8.00;;;3.20;;
57295;SDS011;43146;50.976;18.216;2023-12-20T12:57:21;10.10;;;3.80;;
57295;SDS011;43146;50.976;18.216;2023-12-20T12:59:47;12.70;;;4.90;;
57295;SDS011;43146;50.976;18.216;2023-12-20T13:02:13;11.50;;;3.80;;
57295;SDS011;43146;50.976;18.216;2023-12-20T13:04:39;10.10;;;3.60;;
57295;SDS011;43146;50.976;18.216;2023-12-20T13:07:06;6.90;;;2.40;;
57295;SDS011;43146;50.976;18.216;2023-12-20T13:09:33;11.30;;;2.90;;
57295;SDS011;43146;50.976;18.216;2023-12-20T13:11:59;11.20;;;3.40;;
57295;SDS011;43146;50.976;18.216;2023-12-20T13:14:25;10.20;;;3.00;;
57295;SDS011;43146;50.976;18.216;2023-12-20T13:16:50;9.70;;;2.60;;
57295;SDS011;43146;50.976;18.216;2023-12-20T13:19:16;10.00;;;3.60;;
57295;SDS011;43146;50.976;18.216;2023-12-20T13:21:42;14.90;;;4.30;;
57295;SDS011;43146;50.976;18.216;2023-12-20T13:24:07;12.40;;;4.80;;
57295;SDS011;43146;50.976;18.216;2023-12-20T13:26:33;8.20;;;2.60;;
57295;SDS011;43146;50.976;18.216;2023-12-20T13:28:59;9.80;;;2.60;;
57295;SDS011;43146;50.976;18.216;2023-12-20T13:31:24;9.60;;;2.90;;
57295;SDS011;43146;50.976;18.216;2023-12-20T13:33:50;10.00;;;2.80;;
57295;SDS011;43146;50.976;18.216;2023-12-20T13:36:18;11.30;;;3.00;;
57295;SDS011;43146;50.976;18.216;2023-12-20T13:38:44;11.40;;;3.50;;
57295;SDS011;43146;50.976;18.216;2023-12-20T13:41:10;11.20;;;3.80;;
57295;SDS011;43146;50.976;18.216;2023-12-20T13:43:35;12.70;;;3.30;;
57295;SDS011;43146;50.976;18.216;2023-12-20T13:46:01;9.90;;;3.40;;
57295;SDS011;43146;50.976;18.216;2023-12-20T13:48:26;11.80;;;4.00;;
57295;SDS011;43146;50.976;18.216;2023-12-20T13:50:52;15.80;;;5.70;;
57295;SDS011;43146;50.976;18.216;2023-12-20T13:53:17;11.50;;;4.40;;
57295;SDS011;43146;50.976;18.216;2023-12-20T13:55:44;12.10;;;4.80;;
57295;SDS011;43146;50.976;18.216;2023-12-20T13:58:10;11.20;;;3.70;;
57295;SDS011;43146;50.976;18.216;2023-12-20T14:00:35;12.20;;;4.40;;
57295;SDS011;43146;50.976;18.216;2023-12-20T14:03:02;18.10;;;7.50;;
57295;SDS011;43146;50.976;18.216;2023-12-20T14:05:30;12.20;;;3.60;;
57295;SDS011;43146;50.976;18.216;2023-12-20T14:07:56;11.60;;;3.40;;
57295;SDS011;43146;50.976;18.216;2023-12-20T14:10:25;19.60;;;7.50;;
57295;SDS011;43146;50.976;18.216;2023-12-20T14:12:54;10.70;;;3.40;;
57295;SDS011;43146;50.976;18.216;2023-12-20T14:15:20;18.40;;;7.00;;
57295;SDS011;43146;50.976;18.216;2023-12-20T14:17:46;11.00;;;3.60;;
57295;SDS011;43146;50.976;18.216;2023-12-20T14:20:11;9.90;;;3.90;;
57295;SDS011;43146;50.976;18.216;2023-12-20T14:22:39;11.20;;;4.00;;
57295;SDS011;43146;50.976;18.216;2023-12-20T14:25:12;9.30;;;3.80;;